Time;durP1;ratioP1;P1;durP2;ratioP2;P2;SDS_P1;SDS_P2;PMS_P1;PMS_P2;Temp;Humidity;BMP_temperature;BMP_pressure;BME280_temperature;BME280_humidity;BME280_pressure;Samples;Min_cycle;Max_cycle;Signal;HPM_P1;HPM_P2
2024/01/14 00:01:38;;;;;;;79.47;44.67;;;;;;;-1.21;58.85;99632.19;4408243;32;20148;-92
2024/01/14 00:04:08;;;;;;;70.50;43.60;;;;;;;-1.54;59.49;99642.56;4408340;32;20168;-92
2024/01/14 00:06:37;;;;;;;67.35;40.80;;;;;;;-1.34;59.10;99644.66;4421559;32;20148;-92
2024/01/14 00:09:07;;;;;;;70.07;41.83;;;;;;;-1.36;59.22;99636.88;4410091;32;20483;-92
2024/01/14 00:11:37;;;;;;;75.18;44.08;;;;;;;-1.77;60.30;99630.94;4423216;32;20180;-92
2024/01/14 00:14:08;;;;;;;67.25;41.05;;;;;;;-1.69;60.24;99628.16;4423566;32;20145;-92
2024/01/14 00:16:38;;;;;;;;;;;;;;;-1.42;59.48;99621.47;4409723;32;20155;-92
2024/01/14 00:19:07;;;;;;;72.43;41.63;;;;;;;-1.34;58.94;99629.91;4423539;32;20369;-92
2024/01/14 00:21:49;;;;;;;74.65;43.28;;;;;;;-1.52;59.47;99626.00;4423549;32;20148;-92
2024/01/14 00:24:20;;;;;;;67.18;39.80;;;;;;;-1.49;59.64;99612.09;4423864;32;20152;-92
2024/01/14 00:26:50;;;;;;;77.18;43.83;;;;;;;-1.49;59.52;99620.75;4409240;32;20157;-92
2024/01/14 00:29:23;;;;;;;81.90;41.65;;;;;;;-1.64;59.84;99620.25;4423463;32;20207;-92
2024/01/14 00:31:53;;;;;;;68.80;40.15;;;;;;;-1.58;59.75;99622.72;4423746;32;20132;-92
2024/01/14 00:34:25;;;;;;;62.72;39.42;;;;;;;-1.40;58.92;99618.81;4424032;32;20149;-92
2024/01/14 00:36:55;;;;;;;67.87;40.60;;;;;;;-1.69;59.81;99619.53;4423905;32;20172;-92
2024/01/14 00:39:24;;;;;;;70.50;43.83;;;;;;;-1.77;60.12;99611.91;4410060;32;20168;-92
2024/01/14 00:41:54;;;;;;;69.22;41.50;;;;;;;-1.71;60.21;99608.31;4424215;32;20132;-92
2024/01/14 00:44:25;;;;;;;66.25;41.75;;;;;;;-1.86;60.49;99604.31;4409991;32;20152;-92
2024/01/14 00:46:58;;;;;;;68.45;37.88;;;;;;;-1.81;60.21;99605.94;4424105;32;20141;-92
2024/01/14 00:49:28;;;;;;;69.80;39.97;;;;;;;-1.83;60.43;99605.09;4424130;32;20152;-92
2024/01/14 00:51:58;;;;;;;69.53;41.22;;;;;;;-1.81;60.27;99602.50;4423706;32;20168;-92
2024/01/14 00:54:26;;;;;;;75.78;42.10;;;;;;;-1.85;60.40;99595.66;4409918;32;20176;-92
2024/01/14 00:56:56;;;;;;;62.38;38.67;;;;;;;-1.61;59.82;99594.22;4424046;32;20152;-92
2024/01/14 00:59:27;;;;;;;70.40;42.67;;;;;;;-1.81;60.42;99587.75;4423556;32;20132;-92
2024/01/14 01:01:56;;;;;;;66.70;40.60;;;;;;;-1.69;60.29;99596.16;4409649;32;20145;-92
2024/01/14 01:04:26;;;;;;;70.22;42.60;;;;;;;-1.78;60.46;99589.44;4423629;32;20159;-92
2024/01/14 01:06:56;;;;;;;74.47;42.35;;;;;;;-1.93;60.99;99590.66;4423487;32;20133;-92
2024/01/14 01:09:26;;;;;;;74.03;40.88;;;;;;;-1.69;60.52;99583.16;4409507;32;20145;-92
2024/01/14 01:11:58;;;;;;;69.10;37.65;;;;;;;-1.56;59.94;99577.62;4423768;32;20163;-92
2024/01/14 01:14:29;;;;;;;61.95;40.28;;;;;;;-1.92;60.93;99583.72;4423531;32;20162;-92
2024/01/14 01:16:59;;;;;;;68.53;38.17;;;;;;;-1.64;60.33;99589.09;4409489;32;20530;-92
2024/01/14 01:19:28;;;;;;;67.85;40.97;;;;;;;-1.71;60.52;99574.53;4423534;32;20145;-92
2024/01/14 01:21:57;;;;;;;72.82;38.72;;;;;;;-1.59;60.10;99567.28;4423509;32;20141;-92
2024/01/14 01:24:28;;;;;;;70.40;40.35;;;;;;;-1.61;60.12;99550.91;4422600;32;20513;-93
2024/01/14 01:26:59;;;;;;;79.15;42.75;;;;;;;-1.71;60.25;99565.00;4423749;32;20144;-92
2024/01/14 01:29:30;;;;;;;72.97;38.65;;;;;;;-1.83;60.70;99557.50;4409350;32;20526;-92
2024/01/14 01:31:59;;;;;;;69.53;40.20;;;;;;;-1.70;60.47;99552.88;4423466;32;20156;-92
2024/01/14 01:34:37;;;;;;;68.97;38.17;;;;;;;-1.54;59.95;99543.81;4409508;32;20149;-92
2024/01/14 01:37:13;;;;;;;62.50;39.10;;;;;;;-1.61;60.35;99542.25;4409552;32;20585;-92
2024/01/14 01:39:42;;;;;;;69.95;40.55;;;;;;;-1.67;60.70;99532.00;4423460;32;20145;-92
2024/01/14 01:42:11;;;;;;;69.57;41.42;;;;;;;-1.51;60.48;99525.53;4423493;32;20137;-92
2024/01/14 01:44:42;;;;;;;66.20;36.70;;;;;;;-1.48;60.30;99528.91;4423091;32;20793;-92
2024/01/14 01:47:15;;;;;;;59.25;37.10;;;;;;;-1.60;60.64;99521.44;4422914;32;20152;-92
2024/01/14 01:49:49;;;;;;;71.55;37.72;;;;;;;-1.67;61.01;99527.66;4409206;32;20429;-92
2024/01/14 01:52:24;;;;;;;64.93;38.15;;;;;;;-1.71;61.50;99536.44;4422894;32;20232;-92
2024/01/14 01:55:08;;;;;;;92.37;53.55;;;;;;;-1.80;61.77;99516.75;4422809;32;20156;-92
2024/01/14 01:57:38;;;;;;;71.07;43.05;;;;;;;-1.68;61.36;99515.56;4423113;32;20169;-92
2024/01/14 02:02:47;;;;;;;59.28;36.33;;;;;;;-1.68;61.75;99514.72;4422749;32;20145;-92
2024/01/14 02:05:19;;;;;;;53.83;32.95;;;;;;;-1.73;62.48;99512.25;4422708;32;20137;-92
2024/01/14 02:07:48;;;;;;;52.88;34.45;;;;;;;-1.54;62.53;99515.25;4422516;32;20153;-92
2024/01/14 02:10:18;;;;;;;53.03;33.90;;;;;;;-1.80;63.58;99506.34;4422837;32;20125;-92
2024/01/14 02:12:47;;;;;;;64.10;36.17;;;;;;;-1.52;63.15;99516.03;4408948;32;20125;-92
2024/01/14 02:15:18;;;;;;;59.70;33.80;;;;;;;-1.48;62.92;99518.50;4422956;32;20414;-92
2024/01/14 02:17:48;;;;;;;59.13;34.08;;;;;;;-1.48;63.15;99510.72;4408348;32;20146;-92
2024/01/14 02:20:17;;;;;;;57.60;33.28;;;;;;;-1.43;62.79;99504.53;4422587;32;20137;-92
2024/01/14 02:22:55;;;;;;;62.30;32.70;;;;;;;-1.35;62.65;99507.78;4408903;32;20149;-92
2024/01/14 02:25:31;;;;;;;58.85;35.28;;;;;;;-1.41;62.67;99506.22;4422694;32;20140;-92
2024/01/14 02:28:00;;;;;;;63.03;34.63;;;;;;;-1.02;61.54;99499.06;4408484;32;20164;-92
2024/01/14 02:30:35;;;;;;;54.40;32.47;;;;;;;-1.03;61.68;99499.97;4408676;32;20149;-92
2024/01/14 02:33:06;;;;;;;55.00;32.20;;;;;;;-1.04;61.84;99487.84;4409166;32;20164;-92
2024/01/14 02:35:36;;;;;;;58.20;33.25;;;;;;;-1.22;62.26;99484.94;4423667;32;20144;-92
2024/01/14 02:38:05;;;;;;;56.22;33.53;;;;;;;-1.12;62.01;99488.94;4424380;32;20152;-92
2024/01/14 02:40:35;;;;;;;55.67;32.22;;;;;;;-1.33;62.61;99480.00;4424537;32;20136;-92
2024/01/14 02:43:05;;;;;;;58.05;33.38;;;;;;;-1.39;63.09;99486.22;4424281;32;20137;-92
2024/01/14 02:45:35;;;;;;;53.95;32.83;;;;;;;-1.00;62.17;99486.00;4410562;32;20412;-92
2024/01/14 02:48:06;;;;;;;54.00;31.87;;;;;;;-0.91;61.77;99477.97;4410823;32;20144;-92
2024/01/14 02:50:42;;;;;;;52.08;30.58;;;;;;;-1.17;62.52;99478.69;4424345;32;20145;-92
2024/01/14 02:53:12;;;;;;;60.80;32.83;;;;;;;-0.96;61.84;99477.22;4424394;32;20129;-92
2024/01/14 02:55:43;;;;;;;55.12;34.38;;;;;;;-1.07;62.22;99493.16;4424166;32;20145;-92
2024/01/14 02:58:12;;;;;;;55.78;34.95;;;;;;;-1.41;62.57;99489.78;4410502;32;20144;-92
2024/01/14 03:00:42;;;;;;;55.40;33.03;;;;;;;-0.95;61.21;99484.16;4424245;32;20425;-92
2024/01/14 03:03:11;;;;;;;58.28;32.42;;;;;;;-0.92;60.61;99476.22;4424704;32;20168;-92
2024/01/14 03:05:40;;;;;;;55.22;33.63;;;;;;;-1.01;61.06;99469.56;4424300;32;20171;-92
2024/01/14 03:08:09;;;;;;;60.25;36.90;;;;;;;-1.38;61.76;99463.72;4424035;32;20156;-92
2024/01/14 03:10:39;;;;;;;60.78;34.25;;;;;;;-1.14;61.36;99470.81;4424255;32;20145;-92
2024/01/14 03:13:14;;;;;;;65.40;36.65;;;;;;;-1.27;61.59;99466.84;4424243;32;20176;-92
2024/01/14 03:15:46;;;;;;;60.53;32.70;;;;;;;-1.12;61.18;99458.59;4410242;32;20156;-92
2024/01/14 03:18:16;;;;;;;55.47;34.33;;;;;;;-0.88;59.78;99441.44;4424686;32;20513;-92
2024/01/14 03:20:47;;;;;;;67.62;35.92;;;;;;;-1.37;61.29;99450.66;4410389;32;20145;-92
2024/01/14 03:23:16;;;;;;;58.45;33.35;;;;;;;-1.21;61.01;99445.88;4424282;32;20156;-92
2024/01/14 03:25:45;;;;;;;58.30;33.95;;;;;;;-1.20;60.89;99439.78;4424177;32;20136;-92
2024/01/14 03:28:17;;;;;;;52.28;33.95;;;;;;;-0.89;59.79;99438.88;4424196;32;20149;-92
2024/01/14 03:30:46;;;;;;;53.47;31.80;;;;;;;-0.78;59.29;99436.81;4410446;32;20132;-92
2024/01/14 03:33:16;;;;;;;59.78;33.03;;;;;;;-0.82;59.42;99437.81;4424331;32;20430;-92
2024/01/14 03:35:46;;;;;;;50.95;31.67;;;;;;;-0.97;59.92;99440.88;4410071;32;20161;-92
2024/01/14 03:38:15;;;;;;;64.22;33.92;;;;;;;-1.16;60.64;99432.75;4410126;32;20129;-92
2024/01/14 03:40:47;;;;;;;58.33;33.70;;;;;;;-1.26;61.24;99438.22;4424200;32;20164;-92
2024/01/14 03:43:24;;;;;;;56.05;30.02;;;;;;;-1.40;61.60;99432.53;4424118;32;20149;-92
2024/01/14 03:45:55;;;;;;;45.88;29.12;;;;;;;-1.43;61.90;99430.03;4423662;32;20145;-92
2024/01/14 03:48:24;;;;;;;51.22;29.35;;;;;;;-1.38;61.82;99438.56;4423965;32;20176;-92
2024/01/14 03:50:53;;;;;;;44.42;27.35;;;;;;;-1.39;61.77;99428.19;4410775;32;20157;-92
2024/01/14 03:53:23;;;;;;;44.75;26.17;;;;;;;-1.49;62.12;99427.63;4424072;32;20132;-92
2024/01/14 03:55:52;;;;;;;53.87;27.73;;;;;;;-1.03;60.56;99431.47;4409980;32;20160;-92
2024/01/14 03:58:24;;;;;;;52.47;30.40;;;;;;;-1.34;61.15;99435.00;4410079;32;20148;-92
2024/01/14 04:00:53;;;;;;;47.80;28.75;;;;;;;-1.30;61.14;99428.81;4410064;32;20148;-92
2024/01/14 04:03:22;;;;;;;42.55;24.92;;;;;;;-1.54;61.54;99427.75;4423911;32;20148;-92
2024/01/14 04:05:53;;;;;;;46.60;25.83;;;;;;;-1.21;60.96;99419.88;4409156;32;20153;-92
2024/01/14 04:08:24;;;;;;;38.40;22.35;;;;;;;-1.18;61.10;99417.19;4408410;32;20161;-92
2024/01/14 04:10:53;;;;;;;33.08;21.17;;;;;;;-1.33;61.82;99415.03;4408603;32;20157;-92
2024/01/14 04:13:25;;;;;;;31.02;20.08;;;;;;;-1.06;61.19;99403.84;4414971;32;20133;-92
2024/01/14 04:15:56;;;;;;;37.47;19.85;;;;;;;-1.12;61.80;99405.75;4409981;32;20148;-92
2024/01/14 04:18:31;;;;;;;32.17;19.23;;;;;;;-0.86;61.29;99397.19;4423745;32;20152;-92
2024/01/14 04:21:02;;;;;;;30.03;18.67;;;;;;;-1.08;61.97;99392.63;4424199;32;20192;-92
2024/01/14 04:23:32;;;;;;;30.70;19.05;;;;;;;-1.09;62.29;99397.88;4410107;32;20176;-92
2024/01/14 04:26:07;;;;;;;32.38;20.05;;;;;;;-0.75;61.56;99397.72;4423761;32;20175;-92
2024/01/14 04:28:40;;;;;;;34.17;18.62;;;;;;;-0.93;62.32;99406.06;4423692;32;20148;-92
2024/01/14 04:31:09;;;;;;;;;;;;;;;-0.79;62.06;99409.09;4424150;32;20137;-92
2024/01/14 04:33:40;;;;;;;35.60;18.70;;;;;;;-0.66;61.84;99414.78;4424089;32;20020;-92
2024/01/14 04:36:13;;;;;;;32.63;19.40;;;;;;;-0.60;61.72;99406.75;4423948;32;20223;-92
2024/01/14 04:38:42;;;;;;;34.45;20.98;;;;;;;-0.50;61.45;99402.97;4423856;32;20180;-92
2024/01/14 04:41:12;;;;;;;32.63;20.70;;;;;;;-0.76;62.01;99406.37;4423631;32;20140;-92
2024/01/14 04:43:42;;;;;;;31.80;18.48;;;;;;;-0.71;61.91;99412.31;4423793;32;20157;-92
2024/01/14 04:46:12;;;;;;;35.45;19.15;;;;;;;-0.53;61.45;99397.88;4423821;32;20144;-92
2024/01/14 04:48:41;;;;;;;39.33;20.40;;;;;;;-0.56;61.36;99390.16;4423858;32;20124;-92
2024/01/14 04:51:11;;;;;;;34.55;20.27;;;;;;;-0.61;61.60;99392.06;4410419;32;20156;-92
2024/01/14 04:53:40;;;;;;;43.50;23.23;;;;;;;-0.69;61.97;99394.06;4423619;32;20148;-92
2024/01/14 04:56:09;;;;;;;37.25;21.85;;;;;;;-0.37;61.28;99403.44;4423520;32;20164;-92
2024/01/14 04:58:39;;;;;;;35.38;21.02;;;;;;;-0.31;61.21;99401.47;4422400;32;20140;-92
2024/01/14 05:01:10;;;;;;;34.33;21.83;;;;;;;-0.40;61.37;99387.91;4423710;32;20132;-92
2024/01/14 05:03:43;;;;;;;40.28;21.92;;;;;;;-0.52;61.90;99391.75;4409730;32;20168;-92
2024/01/14 05:06:13;;;;;;;36.40;21.60;;;;;;;-0.31;61.22;99390.22;4410216;32;20196;-92
2024/01/14 05:08:48;;;;;;;45.58;22.65;;;;;;;-0.40;61.23;99383.53;4423479;32;20486;-92
2024/01/14 05:11:17;;;;;;;42.30;23.45;;;;;;;-0.10;60.46;99379.06;4423298;32;20416;-92
2024/01/14 05:13:48;;;;;;;48.45;25.17;;;;;;;-0.32;61.14;99375.47;4409471;32;20411;-92
2024/01/14 05:16:18;;;;;;;43.28;24.00;;;;;;;-0.57;61.85;99380.66;4423252;32;20160;-91
2024/01/14 05:18:48;;;;;;;39.55;23.00;;;;;;;-0.20;61.01;99387.25;4423352;32;20141;-91
2024/01/14 05:21:17;;;;;;;39.38;22.92;;;;;;;-0.09;60.42;99395.53;4423732;32;20148;-92
2024/01/14 05:23:47;;;;;;;45.50;24.37;;;;;;;0.02;60.24;99398.63;4423410;32;20156;-92
2024/01/14 05:26:17;;;;;;;49.88;28.25;;;;;;;-0.08;60.49;99398.13;4423233;32;20153;-92
2024/01/14 05:28:56;;;;;;;47.53;27.75;;;;;;;0.01;60.32;99396.94;4423077;32;20160;-92
2024/01/14 05:31:29;;;;;;;57.97;33.20;;;;;;;0.01;60.12;99396.94;4423273;32;20144;-92
2024/01/14 05:34:04;;;;;;;64.90;38.83;;;;;;;-0.21;60.58;99403.78;4423355;32;20137;-92
2024/01/14 05:36:34;;;;;;;57.50;33.60;;;;;;;-0.10;60.39;99401.66;4423223;32;20273;-92
2024/01/14 05:39:07;;;;;;;40.12;25.02;;;;;;;-0.31;60.78;99385.00;4423644;32;20129;-92
2024/01/14 05:41:38;;;;;;;46.83;27.17;;;;;;;-0.24;60.57;99389.09;4423295;32;20729;-92
2024/01/14 05:44:08;;;;;;;40.22;26.02;;;;;;;-0.07;60.15;99388.53;4423318;32;20428;-92
2024/01/14 05:46:38;;;;;;;42.00;25.23;;;;;;;-0.09;60.33;99396.38;4409279;32;20141;-92
2024/01/14 05:49:08;;;;;;;47.13;28.60;;;;;;;-0.19;60.37;99394.16;4423052;32;20132;-92
2024/01/14 05:51:38;;;;;;;58.53;27.48;;;;;;;-0.01;59.53;99393.53;4423295;32;20396;-92
2024/01/14 05:54:09;;;;;;;49.80;27.08;;;;;;;-0.03;59.61;99395.34;4423743;32;20132;-92
2024/01/14 05:56:46;;;;;;;45.58;26.60;;;;;;;-0.18;59.96;99388.06;4422981;32;20180;-92
2024/01/14 05:59:16;;;;;;;47.95;28.95;;;;;;;-0.14;59.71;99387.03;4423226;32;20488;-93
2024/01/14 06:01:48;;;;;;;45.05;25.02;;;;;;;-0.09;59.57;99387.72;4409420;32;20137;-92
2024/01/14 06:04:18;;;;;;;41.20;24.67;;;;;;;-0.23;59.74;99385.59;4423094;32;20164;-92
2024/01/14 06:06:47;;;;;;;47.33;27.92;;;;;;;-0.03;59.02;99392.75;4409326;32;20481;-92
2024/01/14 06:09:17;;;;;;;46.75;29.73;;;;;;;-0.41;60.11;99394.88;4422860;32;20156;-92
2024/01/14 06:11:46;;;;;;;48.83;28.67;;;;;;;-0.32;59.83;99401.50;4423005;32;20141;-92
2024/01/14 06:14:22;;;;;;;47.30;27.77;;;;;;;-0.27;59.65;99410.88;4408747;32;20160;-92
2024/01/14 06:16:53;;;;;;;49.60;29.27;;;;;;;-0.04;58.71;99402.31;4422719;32;20184;-92
2024/01/14 06:19:22;;;;;;;46.40;29.60;;;;;;;-0.16;58.96;99405.34;4409018;32;20160;-92
2024/01/14 06:21:52;;;;;;;47.03;29.12;;;;;;;-0.25;59.31;99409.06;4408888;32;20156;-92
2024/01/14 06:24:22;;;;;;;45.42;27.75;;;;;;;-0.29;59.35;99407.47;4423022;32;20149;-92
2024/01/14 06:26:54;;;;;;;47.62;26.98;;;;;;;-0.04;58.70;99399.72;4422239;32;20749;-92
2024/01/14 06:29:24;;;;;;;43.75;25.90;;;;;;;-0.02;58.71;99397.03;4408601;32;20168;-92
2024/01/14 06:31:58;;;;;;;48.87;27.75;;;;;;;-0.29;59.43;99391.00;4422725;32;20136;-92
2024/01/14 06:34:27;;;;;;;50.75;27.02;;;;;;;-0.48;60.29;99390.75;4409312;32;20153;-92
2024/01/14 06:37:01;;;;;;;41.90;25.85;;;;;;;-0.50;60.63;99395.16;4422524;32;20129;-92
2024/01/14 06:39:32;;;;;;;49.22;27.45;;;;;;;-0.51;60.70;99390.87;4422455;32;20171;-92
2024/01/14 06:42:01;;;;;;;46.60;26.50;;;;;;;-0.47;60.57;99402.03;4422859;32;20136;-92
2024/01/14 06:44:40;;;;;;;41.65;24.33;;;;;;;-0.31;60.29;99409.28;4422409;32;20135;-92
2024/01/14 06:47:12;;;;;;;38.83;24.05;;;;;;;-0.42;60.65;99411.38;4422533;32;20160;-92
2024/01/14 06:49:41;;;;;;;53.00;27.00;;;;;;;-0.52;61.00;99402.16;4422619;32;20510;-92
2024/01/14 06:52:22;;;;;;;50.17;24.95;;;;;;;-0.31;60.56;99387.62;4425778;32;20429;-91
2024/01/14 06:54:51;;;;;;;48.05;24.58;;;;;;;-0.15;60.03;99394.00;4422451;32;20478;-92
2024/01/14 06:57:21;;;;;;;50.22;25.35;;;;;;;-0.32;60.50;99394.59;4408845;32;20157;-91
2024/01/14 06:59:51;;;;;;;47.47;26.62;;;;;;;-0.27;60.56;99395.28;4417568;32;20164;-92
2024/01/14 07:02:24;;;;;;;42.30;26.00;;;;;;;-0.14;60.31;99393.09;4422336;32;20152;-92
2024/01/14 07:05:10;;;;;;;48.47;26.27;;;;;;;-0.27;60.48;99392.66;4407165;32;20172;-92
2024/01/14 07:07:41;;;;;;;44.03;25.70;;;;;;;-0.03;60.49;99393.59;4393064;32;20805;-92
2024/01/14 07:10:12;;;;;;;45.05;26.80;;;;;;;0.02;60.01;99400.41;4407069;32;20156;-92
2024/01/14 07:12:43;;;;;;;42.97;26.75;;;;;;;0.46;58.89;99406.66;4392957;32;20145;-92
2024/01/14 07:15:21;;;;;;;50.28;26.52;;;;;;;0.25;59.09;99403.06;4406822;32;20132;-90
2024/01/14 07:17:52;;;;;;;45.40;27.10;;;;;;;0.09;60.04;99397.53;4392038;32;20188;-93
2024/01/14 07:20:43;;;;;;;45.72;26.75;;;;;;;0.20;59.83;99391.97;4407998;32;20132;-92
2024/01/14 07:23:14;;;;;;;47.00;28.10;;;;;;;0.40;59.26;99384.28;4394563;32;20513;-92
2024/01/14 07:26:04;;;;;;;53.20;28.48;;;;;;;0.43;59.31;99396.31;4409031;32;20121;-92
2024/01/14 07:28:33;;;;;;;43.70;26.12;;;;;;;0.62;59.05;99402.56;4408726;32;20152;-92
2024/01/14 07:31:02;;;;;;;47.72;25.25;;;;;;;0.79;58.22;99407.16;4408625;32;20144;-92
2024/01/14 07:33:39;;;;;;;40.95;25.37;;;;;;;0.71;58.15;99411.81;4408563;32;20487;-92
2024/01/14 07:36:09;;;;;;;49.47;27.73;;;;;;;0.75;58.31;99405.56;4395490;32;20408;-92
2024/01/14 07:38:41;;;;;;;47.03;25.75;;;;;;;0.83;58.09;99398.34;4408447;32;20497;-92
2024/01/14 07:41:15;;;;;;;44.38;24.67;;;;;;;0.96;57.48;99396.12;4408456;32;20136;-92
2024/01/14 07:43:46;;;;;;;44.45;26.55;;;;;;;1.12;57.06;99394.62;4408645;32;20149;-93
2024/01/14 07:46:21;;;;;;;40.33;26.87;;;;;;;0.98;57.41;99402.09;4408617;32;20489;-92
2024/01/14 07:48:52;;;;;;;45.58;28.55;;;;;;;0.79;57.90;99401.94;4395035;32;20154;-92
2024/01/14 07:51:21;;;;;;;40.00;26.20;;;;;;;0.75;58.05;99408.19;4408864;32;20137;-92
2024/01/14 07:53:52;;;;;;;48.40;25.70;;;;;;;0.93;57.74;99401.44;4408610;32;20174;-92
2024/01/14 07:56:27;;;;;;;42.83;27.25;;;;;;;0.89;57.90;99407.69;4408582;32;20149;-92
2024/01/14 07:58:57;;;;;;;57.05;30.95;;;;;;;0.90;57.67;99405.00;4408369;32;20456;-92
2024/01/14 08:01:26;;;;;;;53.17;27.95;;;;;;;0.83;57.75;99400.94;4408394;32;20132;-92
2024/01/14 08:03:57;;;;;;;50.60;26.87;;;;;;;1.02;57.67;99408.91;4408702;32;20153;-92
2024/01/14 08:06:27;;;;;;;48.22;27.55;;;;;;;1.32;57.46;99404.28;4408408;32;20160;-92
2024/01/14 08:08:56;;;;;;;50.25;29.60;;;;;;;1.92;55.40;99397.47;4408952;32;20169;-92
2024/01/14 08:11:25;;;;;;;46.45;29.23;;;;;;;1.97;54.39;99398.09;4408745;32;20129;-92
2024/01/14 08:13:54;;;;;;;48.72;27.83;;;;;;;1.80;54.16;99404.97;4408540;32;20157;-92
2024/01/14 08:16:24;;;;;;;41.55;24.73;;;;;;;1.54;55.17;99403.41;4408191;32;20441;-92
2024/01/14 08:18:53;;;;;;;46.42;25.23;;;;;;;1.80;54.88;99397.97;4394798;32;20175;-93
2024/01/14 08:21:25;;;;;;;45.12;27.52;;;;;;;1.77;54.71;99398.09;4408351;32;20137;-92
2024/01/14 08:23:57;;;;;;;48.78;25.02;;;;;;;2.51;53.46;99400.19;4408670;32;20149;-92
2024/01/14 08:26:27;;;;;;;44.75;26.23;;;;;;;3.17;52.02;99395.41;4408543;32;20185;-92
2024/01/14 08:28:56;;;;;;;44.40;26.55;;;;;;;3.99;50.16;99390.53;4408366;32;20172;-93
2024/01/14 08:31:28;;;;;;;42.70;25.63;;;;;;;4.58;48.00;99386.59;4408287;32;20144;-93
2024/01/14 08:33:57;;;;;;;43.92;26.30;;;;;;;5.13;46.73;99390.66;4394225;32;20171;-93
2024/01/14 08:36:31;;;;;;;44.17;25.42;;;;;;;5.80;45.07;99389.47;4408168;32;20145;-92
2024/01/14 08:39:01;;;;;;;42.17;24.35;;;;;;;6.71;43.48;99384.09;4408393;32;20161;-92
2024/01/14 08:41:31;;;;;;;41.67;24.58;;;;;;;7.15;41.93;99383.97;4407808;32;20421;-92
2024/01/14 08:44:04;;;;;;;44.33;25.92;;;;;;;6.90;42.43;99385.50;4407354;32;20160;-92
2024/01/14 08:46:33;;;;;;;39.67;25.33;;;;;;;7.77;41.34;99380.84;4407411;32;20172;-92
2024/01/14 08:49:02;;;;;;;42.25;24.02;;;;;;;8.51;39.25;99380.25;4407158;32;20169;-92
2024/01/14 08:51:41;;;;;;;35.83;24.20;;;;;;;9.00;38.51;99379.44;4407008;32;20153;-92
2024/01/14 08:54:09;;;;;;;39.70;25.12;;;;;;;9.07;38.02;99379.88;4406920;32;20136;-92
2024/01/14 08:56:39;;;;;;;45.85;25.40;;;;;;;9.24;37.96;99378.66;4406579;32;20172;-91
2024/01/14 08:59:08;;;;;;;38.03;24.15;;;;;;;9.22;37.52;99383.19;4406388;32;20600;-91
2024/01/14 09:01:37;;;;;;;36.08;25.15;;;;;;;9.16;37.82;99376.56;4406093;32;20200;-91
2024/01/14 09:04:07;;;;;;;41.80;24.27;;;;;;;9.31;37.42;99382.56;4405957;32;20172;-91
2024/01/14 09:06:37;;;;;;;43.22;25.15;;;;;;;9.24;37.50;99389.22;4405864;32;20180;-91
2024/01/14 09:09:08;;;;;;;32.58;23.48;;;;;;;9.43;37.02;99392.22;4406444;32;20180;-91
2024/01/14 09:11:37;;;;;;;41.92;24.30;;;;;;;10.06;36.73;99388.44;4405913;32;20557;-91
2024/01/14 09:14:06;;;;;;;39.38;23.95;;;;;;;10.12;35.99;99383.63;4406198;32;20153;-90
2024/01/14 09:16:36;;;;;;;35.80;21.58;;;;;;;9.85;36.59;99384.72;4405889;32;20456;-90
2024/01/14 09:19:05;;;;;;;37.53;22.95;;;;;;;10.01;36.34;99374.69;4406131;32;20165;-91
2024/01/14 09:21:41;;;;;;;36.63;23.52;;;;;;;9.48;36.94;99378.69;4406034;32;20482;-90
2024/01/14 09:24:14;;;;;;;36.25;22.70;;;;;;;9.22;38.19;99380.53;4406312;32;20179;-91
2024/01/14 09:26:46;;;;;;;36.65;22.98;;;;;;;9.24;38.17;99386.59;4405837;32;20517;-91
2024/01/14 09:29:15;;;;;;;38.88;23.55;;;;;;;8.75;38.74;99387.41;4405990;32;20169;-91
2024/01/14 09:31:44;;;;;;;33.63;20.33;;;;;;;9.02;38.58;99392.53;4406284;32;20141;-91
2024/01/14 09:34:16;;;;;;;36.72;22.42;;;;;;;9.03;38.75;99389.81;4406377;32;20156;-92
2024/01/14 09:36:46;;;;;;;33.40;22.73;;;;;;;8.96;38.90;99379.78;4406493;32;20430;-92
2024/01/14 09:39:17;;;;;;;35.92;21.17;;;;;;;8.80;38.95;99380.03;4406990;32;20518;-92
2024/01/14 09:41:56;;;;;;;37.88;22.60;;;;;;;8.86;38.89;99380.41;4406933;32;20150;-92
2024/01/14 09:44:26;;;;;;;34.80;24.05;;;;;;;9.20;38.88;99382.47;4405909;32;20125;-92
2024/01/14 09:46:55;;;;;;;36.85;21.17;;;;;;;9.56;38.33;99356.00;4406812;32;20160;-92
2024/01/14 09:49:25;;;;;;;32.38;20.90;;;;;;;9.03;38.57;99351.97;4406697;32;20157;-92
2024/01/14 09:51:55;;;;;;;32.58;19.90;;;;;;;9.40;38.74;99350.16;4406963;32;20164;-92
2024/01/14 09:54:25;;;;;;;35.97;20.80;;;;;;;9.09;38.56;99344.44;4406558;32;20138;-92
2024/01/14 09:56:55;;;;;;;31.92;20.58;;;;;;;8.68;39.40;99351.81;4406915;32;20236;-92
2024/01/14 09:59:26;;;;;;;32.97;19.70;;;;;;;9.03;39.44;99342.25;4406635;32;20164;-91
2024/01/14 10:01:56;;;;;;;36.53;20.88;;;;;;;9.30;38.72;99338.53;4406476;32;20173;-92
2024/01/14 10:04:28;;;;;;;31.83;20.17;;;;;;;9.37;38.67;99331.84;4406598;32;20149;-92
2024/01/14 10:06:58;;;;;;;30.00;18.92;;;;;;;9.27;38.07;99331.69;4406462;32;20145;-92
2024/01/14 10:09:29;;;;;;;31.75;19.80;;;;;;;9.76;37.88;99336.00;4392809;32;20785;-92
2024/01/14 10:12:12;;;;;;;35.55;20.80;;;;;;;9.27;38.41;99336.13;4406660;32;20138;-91
2024/01/14 10:14:44;;;;;;;32.72;20.48;;;;;;;9.45;37.69;99321.56;4406564;32;20513;-91
2024/01/14 10:17:14;;;;;;;27.50;19.30;;;;;;;8.70;39.60;99326.12;4406597;32;20148;-91
2024/01/14 10:19:44;;;;;;;28.48;18.52;;;;;;;9.41;38.14;99320.09;4406274;32;20494;-91
2024/01/14 10:22:14;;;;;;;30.65;18.58;;;;;;;9.34;37.93;99326.78;4405990;32;20144;-92
2024/01/14 10:24:54;;;;;;;28.95;18.58;;;;;;;8.85;38.56;99330.34;4406171;32;20525;-91
2024/01/14 10:27:26;;;;;;;27.83;19.70;;;;;;;9.21;38.37;99331.28;4405958;32;20164;-91
2024/01/14 10:30:11;;;;;;;30.98;20.20;;;;;;;9.13;38.35;99325.72;4406176;32;20180;-91
2024/01/14 10:32:43;;;;;;;28.45;18.42;;;;;;;8.44;38.90;99323.53;4405592;32;20156;-91
2024/01/14 10:35:33;;;;;;;29.95;18.37;;;;;;;8.84;38.93;99326.84;4405448;32;20549;-91
2024/01/14 10:38:04;;;;;;;31.52;19.98;;;;;;;9.30;38.05;99317.38;4405202;32;20509;-91
2024/01/14 10:40:36;;;;;;;32.40;18.20;;;;;;;9.27;37.83;99312.34;4405341;32;20148;-91
2024/01/14 10:43:05;;;;;;;30.40;18.35;;;;;;;9.10;37.80;99313.56;4405168;32;20141;-90
2024/01/14 10:45:34;;;;;;;26.80;17.55;;;;;;;9.20;37.83;99305.81;4405181;32;20172;-91
2024/01/14 10:48:12;;;;;;;24.98;16.90;;;;;;;9.04;38.34;99301.66;4405642;32;20160;-91
2024/01/14 10:50:44;;;;;;;26.30;18.15;;;;;;;9.19;37.91;99299.69;4390812;32;20165;-90
2024/01/14 10:53:23;;;;;;;28.23;18.35;;;;;;;8.48;38.50;99300.41;4404887;32;20526;-90
2024/01/14 10:56:01;;;;;;;29.00;19.27;;;;;;;8.37;39.06;99302.00;4405419;32;20133;-90
2024/01/14 10:58:35;;;;;;;27.13;17.77;;;;;;;8.30;39.84;99294.56;4406925;32;20199;-91
2024/01/14 11:01:08;;;;;;;32.60;19.55;;;;;;;9.00;38.76;99294.06;4406894;32;20158;-90
2024/01/14 11:03:39;;;;;;;27.48;16.85;;;;;;;9.14;38.08;99285.94;4406753;32;20737;-90
2024/01/14 11:06:08;;;;;;;30.48;17.48;;;;;;;8.69;38.12;99287.47;4407020;32;20177;-91
2024/01/14 11:08:38;;;;;;;27.50;16.65;;;;;;;8.13;39.58;99288.69;4406689;32;20165;-90
2024/01/14 11:11:08;;;;;;;22.33;15.13;;;;;;;8.32;39.47;99271.56;4406752;32;20228;-90
2024/01/14 11:13:44;;;;;;;28.00;17.90;;;;;;;8.31;39.43;99272.50;4406651;32;20141;-90
2024/01/14 11:16:22;;;;;;;26.65;16.70;;;;;;;8.14;40.07;99269.25;4406396;32;20152;-90
2024/01/14 11:18:58;;;;;;;24.55;16.00;;;;;;;8.43;39.52;99271.66;4406720;32;20160;-90
2024/01/14 11:21:40;;;;;;;27.90;17.77;;;;;;;8.62;38.98;99269.41;4406446;32;20164;-89
2024/01/14 11:24:30;;;;;;;26.70;16.73;;;;;;;8.28;39.58;99265.66;4406438;32;20145;-90
2024/01/14 11:27:01;;;;;;;21.23;14.40;;;;;;;7.87;40.76;99265.88;4406609;32;20133;-90
2024/01/14 11:29:40;;;;;;;23.58;15.77;;;;;;;8.04;40.31;99262.94;4406253;32;20177;-90
2024/01/14 11:32:11;;;;;;;26.62;15.40;;;;;;;8.30;40.03;99262.91;4406404;32;20814;-90
2024/01/14 11:35:02;;;;;;;26.37;15.13;;;;;;;8.69;39.29;99258.44;4392477;32;20164;-90
2024/01/14 11:37:44;;;;;;;25.88;14.10;;;;;;;8.40;39.46;99263.16;4391053;32;20153;-90
2024/01/14 11:40:24;;;;;;;25.65;16.85;;;;;;;8.00;40.16;99264.09;4391256;32;20164;-90
2024/01/14 11:43:02;;;;;;;26.30;16.52;;;;;;;8.37;40.09;99262.41;4391157;32;20168;-90
2024/01/14 11:45:33;;;;;;;26.23;16.58;;;;;;;8.75;39.38;99260.63;4391189;32;20438;-90